Time;durP1;ratioP1;P1;durP2;ratioP2;P2;SDS_P1;SDS_P2;PMS_P1;PMS_P2;Temp;Humidity;BMP_temperature;BMP_pressure;BME280_temperature;BME280_humidity;BME280_pressure;Samples;Min_cycle;Max_cycle;Signal;HPM_P1;HPM_P2
2022/05/29 00:00:26;;;;;;;5.00;4.10;;;16.00;44.30;;;;;;5063324;28;20547;-89
2022/05/29 00:02:53;;;;;;;4.30;3.90;;;16.00;43.90;;;;;;5045643;28;20446;-89
2022/05/29 00:05:20;;;;;;;5.73;4.50;;;15.70;43.90;;;;;;5074903;28;20446;-89
2022/05/29 00:07:50;;;;;;;4.57;4.17;;;15.80;44.30;;;;;;5060903;28;20501;-87
2022/05/29 00:10:19;;;;;;;5.10;4.00;;;15.70;44.20;;;;;;5089636;28;20439;-88
2022/05/29 00:12:46;;;;;;;4.37;3.97;;;15.70;44.80;;;;;;5071645;28;20451;-89
2022/05/29 00:15:14;;;;;;;6.83;5.80;;;15.70;44.50;;;;;;5070152;28;20459;-88
2022/05/29 00:17:41;;;;;;;5.83;5.23;;;15.40;43.30;;;;;;5051151;28;20467;-92
2022/05/29 00:20:09;;;;;;;7.03;5.40;;;15.00;44.50;;;;;;5061484;28;20529;-88
2022/05/29 00:22:36;;;;;;;5.33;4.73;;;15.10;44.00;;;;;;5077643;28;20463;-87
2022/05/29 00:25:09;;;;;;;5.27;4.87;;;15.10;44.30;;;;;;5051466;28;20483;-88
2022/05/29 00:27:37;;;;;;;5.70;5.20;;;15.20;44.90;;;;;;5054578;28;20476;-88
2022/05/29 00:30:06;;;;;;;6.60;5.00;;;15.20;44.70;;;;;;5055857;28;20454;-88
2022/05/29 00:32:33;;;;;;;7.13;5.33;;;15.30;45.20;;;;;;5038136;28;20817;-87
2022/05/29 00:35:00;;;;;;;7.13;5.40;;;15.40;45.20;;;;;;5056729;28;20459;-88
2022/05/29 00:37:30;;;;;;;7.93;5.93;;;15.40;44.90;;;;;;5087063;28;20479;-88
2022/05/29 00:39:57;;;;;;;6.13;5.37;;;15.40;45.00;;;;;;5048213;28;20436;-89
2022/05/29 00:42:25;;;;;;;5.50;4.60;;;15.40;45.00;;;;;;5071370;28;20439;-88
2022/05/29 00:44:54;;;;;;;7.10;4.00;;;15.40;45.90;;;;;;5058515;28;20500;-89
2022/05/29 00:47:23;;;;;;;5.43;4.30;;;15.40;46.00;;;;;;5042291;28;20772;-88
2022/05/29 00:49:52;;;;;;;4.70;4.30;;;15.40;46.40;;;;;;5075579;28;20454;-89
2022/05/29 00:52:23;;;;;;;4.57;4.03;;;15.20;46.10;;;;;;5078528;28;20460;-89
2022/05/29 00:54:54;;;;;;;4.17;3.77;;;15.20;46.80;;;;;;5061824;28;20434;-88
2022/05/29 00:57:26;;;;;;;4.50;4.10;;;14.60;47.70;;;;;;5057413;28;20440;-88
2022/05/29 00:59:55;;;;;;;6.20;4.20;;;14.60;47.60;;;;;;5076541;28;20522;-89
2022/05/29 01:02:23;;;;;;;8.90;4.37;;;14.80;47.40;;;;;;5074192;28;20466;-91
2022/05/29 01:04:50;;;;;;;5.77;4.10;;;14.80;47.40;;;;;;5058739;28;20458;-90
2022/05/29 01:07:22;;;;;;;5.77;4.37;;;15.00;47.20;;;;;;5065244;28;20482;-87
2022/05/29 01:09:51;;;;;;;5.67;4.53;;;15.00;47.00;;;;;;5060420;28;20485;-89
2022/05/29 01:12:33;;;;;;;5.00;4.37;;;14.60;46.50;;;;;;5045117;28;20427;-89
2022/05/29 01:15:08;;;;;;;4.33;4.00;;;13.90;48.00;;;;;;5061803;28;20450;-90
2022/05/29 01:17:47;;;;;;;5.77;5.10;;;14.00;48.30;;;;;;5068174;28;21144;-89
2022/05/29 01:20:39;;;;;;;5.07;4.60;;;14.20;47.70;;;;;;5067827;28;20887;-89
2022/05/29 01:23:31;;;;;;;4.77;4.33;;;14.40;47.00;;;;;;5058396;28;20505;-89
2022/05/29 01:26:25;;;;;;;7.30;3.47;;;14.60;47.10;;;;;;5042363;28;20466;-90
2022/05/29 01:28:56;;;;;;;4.20;3.80;;;14.70;47.00;;;;;;5056923;28;20509;-89
2022/05/29 01:31:33;;;;;;;4.53;4.17;;;14.70;47.20;;;;;;5040834;28;20603;-88
2022/05/29 01:34:11;;;;;;;5.57;5.07;;;14.80;47.30;;;;;;5071364;28;20451;-89
2022/05/29 01:36:48;;;;;;;5.10;3.87;;;14.80;46.60;;;;;;5059373;28;20439;-90
2022/05/29 01:39:23;;;;;;;10.90;4.07;;;14.80;46.50;;;;;;5050631;28;20875;-90
2022/05/29 01:41:56;;;;;;;6.20;4.13;;;14.90;46.30;;;;;;5070788;28;20474;-89
2022/05/29 01:44:32;;;;;;;3.90;3.60;;;14.90;46.30;;;;;;5084169;28;20947;-89
2022/05/29 01:47:13;;;;;;;4.27;3.87;;;14.90;46.40;;;;;;5060837;28;20460;-90
2022/05/29 01:49:45;;;;;;;6.87;4.83;;;14.90;46.70;;;;;;5042957;28;21017;-89
2022/05/29 01:52:16;;;;;;;4.07;3.77;;;14.90;47.10;;;;;;5076708;28;20916;-89
2022/05/29 01:54:48;;;;;;;4.20;3.80;;;14.80;47.30;;;;;;5077098;28;20440;-90
2022/05/29 01:57:20;;;;;;;5.70;4.20;;;14.60;47.50;;;;;;5065116;28;20516;-88
2022/05/29 01:59:53;;;;;;;3.90;3.60;;;14.60;47.60;;;;;;5077752;28;20530;-89
2022/05/29 02:02:26;;;;;;;8.63;4.27;;;14.60;47.50;;;;;;5060576;28;20522;-89
2022/05/29 02:04:56;;;;;;;4.70;4.30;;;14.60;48.10;;;;;;5080792;28;20552;-91
2022/05/29 02:10:19;;;;;;;4.43;3.67;;;14.60;47.90;;;;;;5070626;28;20435;-90
2022/05/29 02:12:51;;;;;;;5.10;4.40;;;14.70;48.10;;;;;;5069244;28;20451;-89
2022/05/29 02:15:26;;;;;;;3.87;3.47;;;14.60;48.20;;;;;;5081871;28;20962;-89
2022/05/29 02:17:56;;;;;;;4.80;4.40;;;14.60;48.10;;;;;;5058676;28;20463;-89
2022/05/29 02:20:26;;;;;;;7.40;4.33;;;14.60;47.50;;;;;;5046214;28;20527;-89
2022/05/29 02:22:57;;;;;;;4.23;3.93;;;14.50;47.60;;;;;;5066165;28;20801;-89
2022/05/29 02:25:28;;;;;;;6.07;4.57;;;14.50;48.10;;;;;;5068275;28;20451;-89
2022/05/29 02:27:59;;;;;;;5.00;4.10;;;14.40;47.90;;;;;;5074828;28;21168;-90
2022/05/29 02:30:34;;;;;;;4.70;4.30;;;14.40;48.00;;;;;;5062657;28;20462;-89
2022/05/29 02:33:07;;;;;;;5.23;4.20;;;14.40;48.00;;;;;;5049189;28;20439;-91
2022/05/29 02:35:41;;;;;;;5.80;4.27;;;14.40;48.00;;;;;;5072713;28;20455;-89
2022/05/29 02:38:13;;;;;;;6.97;4.17;;;14.40;47.80;;;;;;5059396;28;21204;-89
2022/05/29 02:40:47;;;;;;;4.73;4.33;;;14.40;48.40;;;;;;5049255;28;20527;-92
2022/05/29 02:43:22;;;;;;;4.40;4.00;;;14.40;48.50;;;;;;5046779;28;20500;-89
2022/05/29 02:45:57;;;;;;;4.80;3.67;;;14.50;48.70;;;;;;5066458;28;20977;-89
2022/05/29 02:48:36;;;;;;;5.07;4.60;;;14.50;48.90;;;;;;5051981;28;20991;-90
2022/05/29 02:51:09;;;;;;;4.77;4.27;;;14.30;48.80;;;;;;5060238;28;20443;-90
2022/05/29 02:53:42;;;;;;;4.70;4.17;;;14.30;48.90;;;;;;5095523;28;20436;-89
2022/05/29 02:56:09;;;;;;;4.67;4.17;;;14.40;48.70;;;;;;5074723;28;20440;-89
2022/05/29 02:58:38;;;;;;;5.30;4.40;;;14.40;48.60;;;;;;5050786;28;20467;-89
2022/05/29 03:01:20;;;;;;;5.10;4.60;;;14.40;49.00;;;;;;5058099;28;20440;-90
2022/05/29 03:03:58;;;;;;;6.23;5.00;;;14.40;49.30;;;;;;5094093;28;20466;-89
2022/05/29 03:06:41;;;;;;;6.43;5.10;;;14.40;49.60;;;;;;5073527;28;20505;-90
2022/05/29 03:09:21;;;;;;;5.80;5.30;;;14.40;49.40;;;;;;5073032;28;20471;-89
2022/05/29 03:11:49;;;;;;;4.70;4.30;;;14.40;49.30;;;;;;5071903;28;20451;-90
2022/05/29 03:14:28;;;;;;;3.97;3.67;;;14.30;49.30;;;;;;5093269;28;21695;-92
2022/05/29 03:17:09;;;;;;;4.90;4.40;;;14.30;49.60;;;;;;5061156;28;20444;-89
2022/05/29 03:19:44;;;;;;;5.93;4.23;;;14.30;49.70;;;;;;5062115;28;20455;-88
2022/05/29 03:22:20;;;;;;;6.37;4.10;;;14.30;49.70;;;;;;5061964;28;20435;-89
2022/05/29 03:25:01;;;;;;;4.33;3.93;;;14.30;49.60;;;;;;5095613;28;20550;-90
2022/05/29 03:27:32;;;;;;;5.07;4.00;;;14.30;50.00;;;;;;5078092;28;20476;-89
2022/05/29 03:30:04;;;;;;;5.70;4.47;;;14.40;49.40;;;;;;5067385;28;20440;-89
2022/05/29 03:32:35;;;;;;;4.57;3.93;;;14.30;49.80;;;;;;5065014;28;20451;-89
2022/05/29 03:35:17;;;;;;;6.40;4.83;;;14.30;50.00;;;;;;5058933;28;20436;-89
2022/05/29 03:37:44;;;;;;;4.70;4.30;;;14.30;49.90;;;;;;5050986;28;20470;-89
2022/05/29 03:40:12;;;;;;;4.47;4.07;;;14.30;50.00;;;;;;5068781;28;20558;-87
2022/05/29 03:42:39;;;;;;;5.87;4.10;;;14.30;49.90;;;;;;5070595;28;20538;-88
2022/05/29 03:45:08;;;;;;;4.60;4.20;;;14.20;50.30;;;;;;5063508;28;20801;-90
2022/05/29 03:47:36;;;;;;;4.20;3.90;;;14.10;50.40;;;;;;5055938;28;20812;-90
2022/05/29 03:50:04;;;;;;;4.27;3.97;;;14.10;50.30;;;;;;5091920;28;20448;-89
2022/05/29 03:52:33;;;;;;;6.47;4.00;;;14.10;51.00;;;;;;5092578;28;20953;-89
2022/05/29 03:55:00;;;;;;;4.83;4.10;;;14.20;50.30;;;;;;5075446;28;20451;-92
2022/05/29 03:57:28;;;;;;;4.83;3.60;;;14.10;49.10;;;;;;5075399;28;20450;-88
2022/05/29 03:59:56;;;;;;;5.40;4.20;;;14.10;49.50;;;;;;5057259;28;20539;-91
2022/05/29 04:02:23;;;;;;;5.13;4.63;;;14.10;49.70;;;;;;5073496;28;20450;-89
2022/05/29 04:04:51;;;;;;;4.20;3.83;;;14.10;49.80;;;;;;5075741;28;20575;-90
2022/05/29 04:07:18;;;;;;;6.43;4.20;;;14.10;49.60;;;;;;5078643;28;20466;-90
2022/05/29 04:12:30;;;;;;;6.80;4.43;;;13.80;49.20;;;;;;5074903;28;20444;-90
2022/05/29 04:14:57;;;;;;;4.60;4.20;;;13.60;50.20;;;;;;5062102;28;20457;-91
2022/05/29 04:17:24;;;;;;;5.10;4.00;;;13.70;50.70;;;;;;5074357;28;20439;-90
2022/05/29 04:19:52;;;;;;;6.33;4.10;;;13.80;50.40;;;;;;5078431;28;20452;-89
2022/05/29 04:22:22;;;;;;;5.07;4.40;;;14.00;50.40;;;;;;5099115;28;20453;-90
2022/05/29 04:24:49;;;;;;;7.30;4.20;;;14.00;50.60;;;;;;5067188;28;20937;-90
2022/05/29 04:27:17;;;;;;;7.20;4.50;;;14.00;50.70;;;;;;5071040;28;22109;-90
2022/05/29 04:29:44;;;;;;;6.73;4.90;;;13.90;51.20;;;;;;5058030;28;20451;-88
2022/05/29 04:34:57;;;;;;;5.20;4.70;;;13.20;52.60;;;;;;5054987;28;20434;-89
2022/05/29 04:37:25;;;;;;;5.77;4.50;;;13.20;53.00;;;;;;5068761;28;20439;-90
2022/05/29 04:39:52;;;;;;;5.70;5.20;;;13.40;52.80;;;;;;5080078;28;20455;-90
2022/05/29 04:42:19;;;;;;;4.97;4.47;;;13.60;52.50;;;;;;5054734;28;20447;-89
2022/05/29 04:44:46;;;;;;;6.50;4.30;;;13.70;52.00;;;;;;5073922;28;20457;-90
2022/05/29 04:47:13;;;;;;;5.53;4.90;;;13.90;51.60;;;;;;5083786;28;20463;-90
2022/05/29 04:49:40;;;;;;;7.83;4.60;;;14.00;51.50;;;;;;5061438;28;20537;-91
2022/05/29 04:52:10;;;;;;;6.73;4.47;;;14.00;51.70;;;;;;5096030;28;20468;-89
2022/05/29 04:54:38;;;;;;;4.47;4.07;;;14.10;51.70;;;;;;5095683;28;20451;-89
2022/05/29 04:57:07;;;;;;;4.70;4.30;;;14.20;51.60;;;;;;5072583;28;20452;-89
2022/05/29 04:59:34;;;;;;;4.83;4.33;;;14.30;51.40;;;;;;5081104;28;20475;-90
2022/05/29 05:02:02;;;;;;;9.97;5.00;;;14.30;51.10;;;;;;5079738;28;20443;-89
2022/05/29 05:04:29;;;;;;;4.90;4.50;;;14.30;51.10;;;;;;5076437;28;20450;-90
2022/05/29 05:06:58;;;;;;;4.10;3.80;;;14.40;51.40;;;;;;5098513;28;20904;-90
2022/05/29 05:09:27;;;;;;;6.03;4.67;;;14.40;51.10;;;;;;5047684;28;20605;-89
2022/05/29 05:11:55;;;;;;;4.90;4.20;;;14.40;51.00;;;;;;5061189;28;20488;-90
2022/05/29 05:14:23;;;;;;;7.87;4.77;;;14.30;50.50;;;;;;5060320;28;20443;-89
2022/05/29 05:16:50;;;;;;;5.10;4.40;;;14.00;51.70;;;;;;5062606;28;20450;-89
2022/05/29 05:19:18;;;;;;;5.43;4.90;;;13.80;52.50;;;;;;5069027;28;20467;-90
2022/05/29 05:21:45;;;;;;;5.50;4.90;;;13.80;52.80;;;;;;5095118;28;20450;-90
2022/05/29 05:24:12;;;;;;;7.50;5.00;;;14.00;52.30;;;;;;5054049;28;20459;-89
2022/05/29 05:26:40;;;;;;;7.80;4.30;;;14.10;52.60;;;;;;5070215;28;20462;-88
2022/05/29 05:29:07;;;;;;;7.47;5.20;;;14.30;52.10;;;;;;5050706;28;20495;-88
2022/05/29 05:31:35;;;;;;;4.63;4.07;;;14.40;51.70;;;;;;5077264;28;20448;-90
2022/05/29 05:34:02;;;;;;;8.50;4.17;;;14.50;51.00;;;;;;5085330;28;20452;-89
2022/05/29 05:36:29;;;;;;;6.70;5.10;;;14.40;51.70;;;;;;5079893;28;20459;-89
2022/05/29 05:38:56;;;;;;;4.87;4.33;;;14.60;51.40;;;;;;5096449;28;20463;-90
2022/05/29 05:41:23;;;;;;;4.60;4.20;;;14.60;52.10;;;;;;5070528;28;20455;-89
2022/05/29 05:43:51;;;;;;;5.93;4.33;;;14.70;51.70;;;;;;5063572;28;20454;-90
2022/05/29 05:46:19;;;;;;;9.57;4.23;;;14.90;51.40;;;;;;5079918;28;20446;-90
2022/05/29 05:48:46;;;;;;;7.50;4.93;;;15.00;51.30;;;;;;5060029;28;20505;-90
2022/05/29 05:51:14;;;;;;;5.97;4.20;;;15.00;50.90;;;;;;5077242;28;20508;-90
2022/05/29 05:53:42;;;;;;;4.40;4.00;;;14.90;51.10;;;;;;5075956;28;20532;-90
2022/05/29 05:56:11;;;;;;;8.40;3.97;;;15.00;51.00;;;;;;5051924;28;20454;-91
2022/05/29 05:58:38;;;;;;;7.63;3.93;;;14.90;51.40;;;;;;5080260;28;20512;-89
2022/05/29 06:01:10;;;;;;;7.77;3.90;;;15.00;52.00;;;;;;5074384;28;20436;-90
2022/05/29 06:03:37;;;;;;;8.30;4.30;;;15.30;51.50;;;;;;5077709;28;21420;-89
2022/05/29 06:06:05;;;;;;;6.40;4.20;;;15.40;50.90;;;;;;5084375;28;20460;-90
2022/05/29 06:08:32;;;;;;;6.53;3.80;;;15.60;50.80;;;;;;5074898;28;20574;-90
2022/05/29 06:10:59;;;;;;;5.93;3.67;;;15.80;50.60;;;;;;5049263;28;20572;-91
2022/05/29 06:13:27;;;;;;;6.17;3.67;;;16.00;50.10;;;;;;5058311;28;20444;-90
2022/05/29 06:15:54;;;;;;;3.63;3.30;;;16.00;49.90;;;;;;5063142;28;20973;-90
2022/05/29 06:18:23;;;;;;;5.63;3.67;;;16.00;49.90;;;;;;5074025;28;20469;-89
2022/05/29 06:20:58;;;;;;;6.53;3.87;;;16.00;50.20;;;;;;5059939;28;20970;-92
2022/05/29 06:23:25;;;;;;;3.87;3.20;;;16.10;50.00;;;;;;5073714;28;20446;-90
2022/05/29 06:25:52;;;;;;;6.73;3.50;;;16.30;49.50;;;;;;5059313;28;20450;-89
2022/05/29 06:28:19;;;;;;;3.70;3.00;;;16.20;49.20;;;;;;5059955;28;20478;-90
2022/05/29 06:30:46;;;;;;;3.30;3.00;;;16.20;48.40;;;;;;5077982;28;20538;-90
2022/05/29 06:33:13;;;;;;;5.47;3.00;;;16.40;48.00;;;;;;5055810;28;20444;-89
2022/05/29 06:35:42;;;;;;;5.17;2.87;;;16.60;47.60;;;;;;5055035;28;20440;-90
2022/05/29 06:38:09;;;;;;;7.37;3.10;;;16.70;47.50;;;;;;5090430;28;20547;-91
2022/05/29 06:40:36;;;;;;;4.40;3.00;;;16.70;47.10;;;;;;5043455;28;20450;-90
2022/05/29 06:43:03;;;;;;;4.47;2.63;;;16.70;47.20;;;;;;5073879;28;20480;-89
2022/05/29 06:45:30;;;;;;;5.47;2.30;;;16.80;46.90;;;;;;5071928;28;20816;-90
2022/05/29 06:47:57;;;;;;;4.90;3.20;;;16.50;46.20;;;;;;5055452;28;20479;-90
2022/05/29 06:50:24;;;;;;;6.37;2.77;;;16.30;47.00;;;;;;5056221;28;20459;-90
2022/05/29 06:52:53;;;;;;;6.57;2.80;;;16.50;48.60;;;;;;5049865;28;20448;-91
2022/05/29 06:55:21;;;;;;;8.60;3.23;;;16.60;48.80;;;;;;5058101;28;20442;-91
2022/05/29 06:57:49;;;;;;;4.00;3.00;;;16.80;48.90;;;;;;5065511;28;20455;-89
2022/05/29 07:08:35;;;;;;;5.83;2.70;;;17.10;48.10;;;;;;5048356;28;20466;-89
2022/05/29 07:11:05;;;;;;;5.47;2.30;;;17.30;46.10;;;;;;5055743;28;20447;-90
2022/05/29 07:13:34;;;;;;;4.20;2.57;;;17.30;46.50;;;;;;5066152;28;20965;-90
2022/05/29 07:16:01;;;;;;;4.27;2.37;;;17.40;46.70;;;;;;5061505;28;20447;-89
2022/05/29 07:18:29;;;;;;;4.87;3.27;;;17.50;45.70;;;;;;5090822;28;20664;-89
2022/05/29 07:20:59;;;;;;;5.10;2.47;;;17.40;45.40;;;;;;5090267;28;20439;-90
2022/05/29 07:23:26;;;;;;;4.57;2.13;;;17.60;45.90;;;;;;5044076;28;20808;-90
2022/05/29 07:25:54;;;;;;;3.57;2.53;;;17.80;46.30;;;;;;5075460;28;20490;-90
2022/05/29 07:28:22;;;;;;;4.13;3.30;;;18.10;45.60;;;;;;5056190;28;20464;-91
2022/05/29 07:30:49;;;;;;;7.13;3.63;;;18.30;45.10;;;;;;5041830;28;20459;-90
2022/05/29 07:33:16;;;;;;;8.50;2.70;;;18.30;45.00;;;;;;5073994;28;20485;-89
2022/05/29 07:35:43;;;;;;;7.00;2.67;;;18.40;45.00;;;;;;5064074;28;21349;-89
2022/05/29 07:38:11;;;;;;;7.43;2.20;;;18.30;45.00;;;;;;5074435;28;20450;-89
2022/05/29 07:40:38;;;;;;;5.73;2.40;;;18.20;44.90;;;;;;5063417;28;20442;-89
2022/05/29 07:43:22;;;;;;;2.40;2.20;;;18.20;44.30;;;;;;5079103;28;20439;-89
2022/05/29 07:45:50;;;;;;;6.23;2.40;;;18.20;44.80;;;;;;5055729;28;21162;-90
2022/05/29 07:48:18;;;;;;;5.10;3.33;;;18.20;44.40;;;;;;5055877;28;20478;-90
2022/05/29 07:50:45;;;;;;;4.13;2.17;;;18.10;44.60;;;;;;5068135;28;20445;-90
2022/05/29 07:53:14;;;;;;;5.87;1.90;;;18.10;42.80;;;;;;5090990;28;20462;-90
2022/05/29 07:55:41;;;;;;;9.03;2.10;;;18.20;42.10;;;;;;5064904;28;20547;-88
2022/05/29 07:58:10;;;;;;;4.77;1.67;;;18.00;40.80;;;;;;5063914;28;20558;-89
2022/05/29 08:00:37;;;;;;;4.87;2.10;;;18.00;42.40;;;;;;5072852;28;20518;-89
2022/05/29 08:03:06;;;;;;;5.30;2.40;;;18.10;41.70;;;;;;5068982;28;21093;-89
2022/05/29 08:05:36;;;;;;;2.90;1.83;;;18.00;40.70;;;;;;5057552;28;20447;-88
2022/05/29 08:08:08;;;;;;;3.87;2.10;;;17.80;40.50;;;;;;5045671;28;20468;-92
2022/05/29 08:10:37;;;;;;;4.53;1.60;;;18.10;41.10;;;;;;5053209;28;20477;-90
2022/05/29 08:13:04;;;;;;;9.63;2.07;;;18.30;40.50;;;;;;5074313;28;20456;-91
2022/05/29 08:15:33;;;;;;;3.90;2.17;;;18.50;41.00;;;;;;5046593;28;20443;-89
2022/05/29 08:18:00;;;;;;;4.30;1.90;;;18.30;39.80;;;;;;5063618;28;20702;-91
2022/05/29 08:20:28;;;;;;;7.50;1.97;;;18.30;39.90;;;;;;5064470;28;20460;-90
2022/05/29 08:22:56;;;;;;;4.97;1.97;;;18.50;39.70;;;;;;5071300;28;21018;-91
2022/05/29 08:30:55;;;;;;;5.63;1.90;;;18.70;38.90;;;;;;5070556;28;20440;-90
2022/05/29 08:33:23;;;;;;;5.73;2.10;;;18.90;38.20;;;;;;5090755;28;20443;-91
2022/05/29 08:35:54;;;;;;;5.23;1.57;;;19.00;38.80;;;;;;5090465;28;20451;-88
2022/05/29 08:38:21;;;;;;;4.27;1.60;;;19.30;39.60;;;;;;5091316;28;20475;-90
2022/05/29 08:40:50;;;;;;;2.53;1.63;;;19.50;39.10;;;;;;5070614;28;20431;-88
2022/05/29 08:43:26;;;;;;;2.87;1.60;;;20.00;39.00;;;;;;5039669;28;20823;-90
2022/05/29 08:45:55;;;;;;;8.93;2.10;;;20.30;38.20;;;;;;5092244;28;20531;-92
2022/05/29 08:48:26;;;;;;;5.90;2.10;;;20.50;37.20;;;;;;5062543;28;20471;-89
2022/05/29 08:51:05;;;;;;;3.00;1.40;;;20.80;36.50;;;;;;5089262;28;20454;-89
2022/05/29 08:53:41;;;;;;;4.60;2.23;;;20.70;35.60;;;;;;5091863;28;20563;-89
2022/05/29 08:56:16;;;;;;;5.27;2.63;;;20.50;35.50;;;;;;5060570;28;20475;-89
2022/05/29 08:58:57;;;;;;;10.20;2.33;;;20.00;35.40;;;;;;5089159;28;21041;-88
2022/05/29 09:01:35;;;;;;;4.90;2.30;;;19.70;37.40;;;;;;5059375;28;20445;-88
2022/05/29 09:04:06;;;;;;;3.47;1.63;;;19.60;37.20;;;;;;5056528;28;20442;-89
2022/05/29 09:06:38;;;;;;;2.57;1.77;;;19.60;38.30;;;;;;5075524;28;20993;-88
2022/05/29 09:09:09;;;;;;;11.13;2.63;;;19.60;37.10;;;;;;5074219;28;20468;-88
2022/05/29 09:11:39;;;;;;;3.30;1.60;;;19.40;36.60;;;;;;5079275;28;20448;-88
2022/05/29 09:14:13;;;;;;;4.23;1.77;;;19.20;37.40;;;;;;5076908;28;20981;-90
2022/05/29 09:16:45;;;;;;;12.13;2.37;;;19.10;38.20;;;;;;5079267;28;20451;-89
2022/05/29 09:19:21;;;;;;;7.20;2.17;;;19.00;38.00;;;;;;5067379;28;21004;-89
2022/05/29 09:21:53;;;;;;;5.33;1.93;;;18.90;39.20;;;;;;5094476;28;20444;-88
2022/05/29 09:24:41;;;;;;;3.90;2.07;;;19.00;39.40;;;;;;5096600;28;20492;-88
2022/05/29 09:27:10;;;;;;;3.30;1.80;;;19.00;39.20;;;;;;5063727;28;20446;-89
2022/05/29 09:29:38;;;;;;;5.50;2.13;;;19.10;40.10;;;;;;5097372;28;20468;-90
2022/05/29 09:32:13;;;;;;;4.00;2.10;;;19.20;40.50;;;;;;5069424;28;20458;-89
2022/05/29 09:34:41;;;;;;;4.20;1.93;;;19.10;41.50;;;;;;5076127;28;20810;-89
2022/05/29 09:37:16;;;;;;;3.33;2.00;;;19.10;41.20;;;;;;5077130;28;20869;-90
2022/05/29 09:39:48;;;;;;;7.83;2.20;;;18.80;42.40;;;;;;5077952;28;20903;-89
2022/05/29 09:42:20;;;;;;;4.37;2.13;;;18.40;43.40;;;;;;5078071;28;20453;-88
2022/05/29 09:45:09;;;;;;;2.90;1.90;;;18.30;44.20;;;;;;5095592;28;20444;-89
2022/05/29 09:50:46;;;;;;;6.97;2.27;;;18.30;44.80;;;;;;5001532;28;20479;-90
2022/05/29 09:53:16;;;;;;;2.90;1.80;;;18.50;44.00;;;;;;5063495;28;20457;-90
2022/05/29 09:55:55;;;;;;;3.37;2.20;;;18.50;44.60;;;;;;5091869;28;20447;-88
2022/05/29 09:58:27;;;;;;;5.10;2.10;;;18.70;40.50;;;;;;5094667;28;20525;-89
2022/05/29 10:00:57;;;;;;;6.30;2.10;;;19.20;41.80;;;;;;5057270;28;20543;-89
2022/05/29 10:03:50;;;;;;;2.30;1.80;;;19.10;36.80;;;;;;5076098;28;20450;-89
2022/05/29 10:06:23;;;;;;;3.37;1.77;;;18.30;37.80;;;;;;5068412;28;20455;-89
2022/05/29 10:08:53;;;;;;;7.20;1.90;;;19.00;39.30;;;;;;5080169;28;20481;-89
2022/05/29 10:11:22;;;;;;;6.40;2.03;;;19.40;36.90;;;;;;5077170;28;20446;-89
2022/05/29 10:13:51;;;;;;;1.50;1.40;;;19.60;38.30;;;;;;5063658;28;20485;-89
2022/05/29 10:16:33;;;;;;;3.00;1.57;;;19.80;36.30;;;;;;5076408;28;20516;-90
2022/05/29 10:19:03;;;;;;;5.57;2.07;;;20.00;36.20;;;;;;5067868;28;20477;-89
2022/05/29 10:21:32;;;;;;;3.50;1.80;;;19.90;35.20;;;;;;5098956;28;20455;-89
2022/05/29 10:24:20;;;;;;;3.73;1.60;;;19.90;35.50;;;;;;5055725;28;20461;-89
2022/05/29 10:26:49;;;;;;;2.90;2.07;;;20.00;36.20;;;;;;5053958;28;21019;-89
2022/05/29 10:29:20;;;;;;;10.83;1.70;;;19.90;36.00;;;;;;5051929;28;20506;-89
2022/05/29 10:31:49;;;;;;;4.90;1.87;;;19.80;36.70;;;;;;5066286;28;20443;-89
2022/05/29 10:34:24;;;;;;;5.10;1.97;;;19.80;38.10;;;;;;5078574;28;20523;-89
2022/05/29 10:36:52;;;;;;;5.77;1.90;;;19.70;38.00;;;;;;5101367;28;20497;-90
2022/05/29 10:39:23;;;;;;;2.73;1.90;;;19.60;38.20;;;;;;5097701;28;20460;-89
2022/05/29 10:41:52;;;;;;;2.87;2.00;;;19.40;38.40;;;;;;5064525;28;20438;-90
2022/05/29 10:44:40;;;;;;;5.93;2.30;;;19.50;38.70;;;;;;5075842;28;20620;-90
2022/05/29 10:47:15;;;;;;;5.77;1.90;;;19.60;39.80;;;;;;5080222;28;20448;-89
2022/05/29 10:49:51;;;;;;;3.37;1.67;;;19.60;40.30;;;;;;5084220;28;20545;-89
2022/05/29 10:52:36;;;;;;;5.80;2.20;;;19.80;39.30;;;;;;5082271;28;20952;-89
2022/05/29 10:55:35;;;;;;;2.63;1.60;;;19.90;38.30;;;;;;5071311;28;20452;-88
2022/05/29 10:58:33;;;;;;;4.00;1.60;;;19.70;35.80;;;;;;5076425;28;20494;-89
2022/05/29 11:04:13;;;;;;;2.50;1.83;;;19.90;36.00;;;;;;5082408;28;20450;-89
2022/05/29 11:06:55;;;;;;;6.80;1.60;;;20.00;36.40;;;;;;5081264;28;20602;-89
2022/05/29 11:09:50;;;;;;;3.00;2.00;;;20.10;37.00;;;;;;5099454;28;20474;-88
2022/05/29 11:12:29;;;;;;;4.43;1.73;;;20.00;36.00;;;;;;5062812;28;20439;-89
2022/05/29 11:15:14;;;;;;;5.20;1.80;;;20.10;36.30;;;;;;5078786;28;20450;-87
2022/05/29 11:17:51;;;;;;;3.30;1.80;;;20.00;35.80;;;;;;5062802;28;20478;-89
2022/05/29 11:20:40;;;;;;;6.03;2.13;;;20.10;36.10;;;;;;5081384;28;20945;-88
2022/05/29 11:23:21;;;;;;;4.20;2.53;;;20.30;36.50;;;;;;5064198;28;20454;-89
2022/05/29 11:25:58;;;;;;;6.10;2.33;;;20.20;36.70;;;;;;5075298;28;20444;-88
2022/05/29 11:28:50;;;;;;;7.80;2.10;;;20.20;37.70;;;;;;5068454;28;20463;-88
2022/05/29 11:31:32;;;;;;;8.80;2.30;;;20.00;37.50;;;;;;5045098;28;20454;-89
2022/05/29 11:34:24;;;;;;;5.47;1.90;;;20.20;38.50;;;;;;5077662;28;20439;-89
2022/05/29 11:37:03;;;;;;;3.03;2.17;;;20.70;37.00;;;;;;5092503;28;20525;-91
2022/05/29 11:39:35;;;;;;;5.43;1.90;;;20.80;39.10;;;;;;5044215;28;20464;-89
2022/05/29 11:42:08;;;;;;;4.83;2.60;;;20.80;39.50;;;;;;5088928;28;20470;-89
2022/05/29 11:44:43;;;;;;;3.27;2.50;;;20.80;38.70;;;;;;5056908;28;20771;-90
2022/05/29 11:52:58;;;;;;;3.13;1.93;;;20.70;39.00;;;;;;5071126;28;20478;-90
2022/05/29 11:55:30;;;;;;;7.30;2.13;;;20.70;37.10;;;;;;5037522;28;20443;-89
2022/05/29 11:58:01;;;;;;;2.37;1.90;;;20.80;37.30;;;;;;5065066;28;20933;-89
2022/05/29 12:00:34;;;;;;;6.20;2.07;;;20.80;36.60;;;;;;5061993;28;20451;-89
2022/05/29 12:03:12;;;;;;;7.60;1.73;;;20.90;36.90;;;;;;5087765;28;20452;-88
2022/05/29 12:05:43;;;;;;;3.40;1.80;;;20.80;35.10;;;;;;5066994;28;20459;-88
2022/05/29 12:08:18;;;;;;;1.70;1.60;;;21.10;37.40;;;;;;5055296;28;20471;-88
2022/05/29 12:10:54;;;;;;;4.30;1.60;;;21.40;36.40;;;;;;5057486;28;20474;-89
2022/05/29 12:13:24;;;;;;;5.17;2.30;;;21.60;36.60;;;;;;5042381;28;20462;-88
2022/05/29 12:16:01;;;;;;;3.13;1.60;;;22.00;34.90;;;;;;5066324;28;20792;-87
2022/05/29 12:18:37;;;;;;;7.20;1.90;;;22.20;33.50;;;;;;5084787;28;20463;-87
2022/05/29 12:21:06;;;;;;;4.40;1.77;;;22.60;31.50;;;;;;5084472;28;21269;-87
2022/05/29 12:23:38;;;;;;;4.73;1.30;;;22.60;31.30;;;;;;5060598;28;20451;-87
2022/05/29 12:26:11;;;;;;;2.00;1.87;;;22.40;31.40;;;;;;5038146;28;20455;-88
2022/05/29 12:28:43;;;;;;;4.00;1.87;;;22.30;31.50;;;;;;5084005;28;20467;-88
2022/05/29 12:31:16;;;;;;;3.80;1.40;;;22.30;31.80;;;;;;5051021;28;20464;-88
2022/05/29 12:33:45;;;;;;;5.17;1.90;;;22.40;30.30;;;;;;5082661;28;20912;-87
2022/05/29 12:36:20;;;;;;;3.20;2.33;;;22.40;30.30;;;;;;5082104;28;21262;-87
2022/05/29 12:39:01;;;;;;;4.13;1.50;;;22.40;30.70;;;;;;5091842;28;20466;-88
2022/05/29 12:41:52;;;;;;;4.80;2.13;;;22.90;29.60;;;;;;5090024;28;20436;-89
2022/05/29 12:44:55;;;;;;;5.60;1.70;;;22.80;29.30;;;;;;5062227;28;20438;-88
2022/05/29 12:47:45;;;;;;;2.60;1.63;;;22.80;29.90;;;;;;5078934;28;20946;-89
2022/05/29 12:50:38;;;;;;;3.40;1.70;;;23.20;29.00;;;;;;5073473;28;21259;-90
2022/05/29 12:53:34;;;;;;;2.37;1.50;;;23.50;29.20;;;;;;5075756;28;20451;-89
2022/05/29 12:56:17;;;;;;;3.03;1.30;;;23.50;29.00;;;;;;5026562;28;21052;-88
2022/05/29 12:59:10;;;;;;;3.00;1.50;;;23.60;29.20;;;;;;5078910;28;20549;-88
2022/05/29 13:01:58;;;;;;;3.70;1.70;;;23.00;27.10;;;;;;5091476;28;20813;-88
2022/05/29 13:05:14;;;;;;;6.00;1.83;;;22.30;28.90;;;;;;5074806;28;20452;-89
2022/05/29 13:08:04;;;;;;;1.40;1.27;;;22.20;30.70;;;;;;4980152;28;20471;-87
2022/05/29 13:10:35;;;;;;;2.37;1.13;;;22.10;29.30;;;;;;5066560;28;20744;-87
2022/05/29 13:13:07;;;;;;;1.50;1.40;;;22.10;27.80;;;;;;5065727;28;20448;-87
2022/05/29 13:15:37;;;;;;;2.00;1.20;;;22.30;29.80;;;;;;5078396;28;20789;-88
2022/05/29 13:18:15;;;;;;;1.97;1.23;;;22.30;29.50;;;;;;5076267;28;20487;-89
2022/05/29 13:21:12;;;;;;;6.17;1.30;;;22.40;30.00;;;;;;5077351;28;21137;-88
2022/05/29 13:23:42;;;;;;;3.97;1.13;;;22.30;29.40;;;;;;5094625;28;20452;-88
2022/05/29 13:26:17;;;;;;;1.17;1.07;;;22.10;27.90;;;;;;5050061;28;20446;-89
2022/05/29 13:28:59;;;;;;;4.20;1.50;;;21.90;27.90;;;;;;5076440;28;20471;-88
2022/05/29 13:31:31;;;;;;;3.50;1.30;;;22.00;28.70;;;;;;5078159;28;20553;-88
2022/05/29 13:34:18;;;;;;;3.63;1.20;;;22.00;28.70;;;;;;5083200;28;20552;-88
2022/05/29 13:37:08;;;;;;;2.10;1.20;;;21.90;29.10;;;;;;5080019;28;20442;-89
2022/05/29 13:40:00;;;;;;;1.77;1.40;;;21.80;28.70;;;;;;5096111;28;20499;-88
2022/05/29 13:42:48;;;;;;;5.93;1.30;;;21.90;28.40;;;;;;5079100;28;20447;-88
2022/05/29 13:46:03;;;;;;;1.80;1.33;;;21.80;28.70;;;;;;5058986;28;20435;-87
2022/05/29 13:48:32;;;;;;;2.10;1.10;;;21.80;28.40;;;;;;5074266;28;20479;-89